Time;durP1;ratioP1;P1;durP2;ratioP2;P2;SDS_P1;SDS_P2;PMS_P1;PMS_P2;Temp;Humidity;BMP_temperature;BMP_pressure;BME280_temperature;BME280_humidity;BME280_pressure;Samples;Min_cycle;Max_cycle;Signal;HPM_P1;HPM_P2
2021/08/11 00:02:12;;;;;;;18.20;11.07;;;;;;;;;;5079355;28;20487;-70
2021/08/11 00:04:46;;;;;;;13.50;8.97;;;;;;;;;;5079239;28;20461;-70
2021/08/11 00:07:14;;;;;;;13.17;9.27;;;;;;;;;;5079343;28;20807;-70
2021/08/11 00:09:42;;;;;;;16.63;10.77;;;;;;;;;;5079108;28;20460;-70
2021/08/11 00:12:14;;;;;;;20.83;11.10;;;;;;;;;;5078841;28;20460;-70
2021/08/11 00:14:43;;;;;;;17.60;10.30;;;;;;;;;;5078515;28;20460;-70
2021/08/11 00:17:12;;;;;;;13.17;10.30;;;;;;;;;;5078291;28;20498;-70
2021/08/11 00:19:40;;;;;;;16.10;10.57;;;;;;;;;;5078540;28;20516;-70
2021/08/11 00:22:08;;;;;;;13.30;8.47;;;;;;;;;;5078128;28;20456;-70
2021/08/11 00:24:35;;;;;;;16.30;9.93;;;;;;;;;;5078766;28;20755;-70
2021/08/11 00:27:03;;;;;;;14.30;9.27;;;;;;;;;;5078059;28;20513;-70
2021/08/11 00:29:31;;;;;;;15.60;8.80;;;;;;;;;;5078116;28;20815;-70
2021/08/11 00:31:59;;;;;;;12.83;9.70;;;;;;;;;;5077375;28;20720;-70
2021/08/11 00:34:28;;;;;;;18.30;10.40;;;;;;;;;;5077848;28;20464;-70
2021/08/11 00:36:57;;;;;;;20.90;11.47;;;;;;;;;;5078190;28;20457;-70
2021/08/11 00:39:24;;;;;;;12.87;10.03;;;;;;;;;;5077714;28;20471;-70
2021/08/11 00:41:54;;;;;;;11.53;8.60;;;;;;;;;;5078603;28;20456;-70
2021/08/11 00:44:22;;;;;;;15.40;9.60;;;;;;;;;;5077436;28;20457;-70
2021/08/11 00:46:52;;;;;;;14.60;10.27;;;;;;;;;;5078567;28;20552;-70
2021/08/11 00:49:20;;;;;;;14.37;9.93;;;;;;;;;;5078046;28;20481;-71
2021/08/11 00:51:52;;;;;;;14.70;10.70;;;;;;;;;;5078423;28;20728;-70
2021/08/11 00:54:20;;;;;;;14.87;8.60;;;;;;;;;;5078112;28;20526;-71
2021/08/11 00:56:49;;;;;;;15.30;9.60;;;;;;;;;;5078212;28;20476;-71
2021/08/11 00:59:18;;;;;;;15.73;10.00;;;;;;;;;;5078175;28;20543;-70
2021/08/11 01:01:56;;;;;;;15.43;10.37;;;;;;;;;;5076910;28;20469;-71
2021/08/11 01:04:24;;;;;;;15.97;10.50;;;;;;;;;;5077805;28;20809;-70
2021/08/11 01:06:54;;;;;;;18.87;11.97;;;;;;;;;;5078144;28;20466;-70
2021/08/11 01:09:22;;;;;;;17.00;10.80;;;;;;;;;;5078005;28;20484;-70
2021/08/11 01:11:54;;;;;;;17.80;10.57;;;;;;;;;;5077764;28;20460;-71
2021/08/11 01:14:24;;;;;;;12.67;8.77;;;;;;;;;;5077658;28;20525;-71
2021/08/11 01:16:52;;;;;;;19.80;11.30;;;;;;;;;;5077302;28;20456;-71
2021/08/11 01:19:20;;;;;;;14.63;9.63;;;;;;;;;;5077759;28;20476;-71
2021/08/11 01:21:50;;;;;;;13.20;10.20;;;;;;;;;;5077952;28;20464;-71
2021/08/11 01:24:27;;;;;;;18.90;10.70;;;;;;;;;;5077781;28;20461;-71
2021/08/11 01:27:07;;;;;;;12.33;9.43;;;;;;;;;;5076952;28;20460;-71
2021/08/11 01:29:40;;;;;;;15.63;9.80;;;;;;;;;;5077186;28;20444;-70
2021/08/11 01:32:09;;;;;;;15.10;10.03;;;;;;;;;;5077221;28;20456;-70
2021/08/11 01:34:43;;;;;;;24.23;10.53;;;;;;;;;;5077652;28;20495;-70
2021/08/11 01:37:11;;;;;;;11.80;8.43;;;;;;;;;;5077217;28;20452;-71
2021/08/11 01:39:43;;;;;;;12.67;8.47;;;;;;;;;;5077301;28;20481;-71
2021/08/11 01:42:14;;;;;;;14.07;10.00;;;;;;;;;;5077191;28;20518;-71
2021/08/11 01:44:44;;;;;;;14.27;10.50;;;;;;;;;;5077243;28;20551;-70
2021/08/11 01:47:15;;;;;;;13.50;9.50;;;;;;;;;;5077395;28;20543;-70
2021/08/11 01:49:46;;;;;;;16.97;10.17;;;;;;;;;;5076791;28;20496;-71
2021/08/11 01:52:14;;;;;;;13.83;9.13;;;;;;;;;;5077007;28;20547;-70
2021/08/11 01:54:43;;;;;;;14.27;9.77;;;;;;;;;;5076414;28;20449;-70
2021/08/11 01:57:12;;;;;;;14.90;9.73;;;;;;;;;;5076536;28;20466;-71
2021/08/11 01:59:40;;;;;;;15.33;9.10;;;;;;;;;;5076909;28;20441;-71
2021/08/11 02:02:08;;;;;;;13.70;9.13;;;;;;;;;;5077260;28;20519;-70
2021/08/11 02:04:37;;;;;;;15.87;11.27;;;;;;;;;;5076911;28;20872;-70
2021/08/11 02:07:07;;;;;;;12.23;9.20;;;;;;;;;;5076919;28;20464;-71
2021/08/11 02:09:38;;;;;;;11.40;9.03;;;;;;;;;;5076550;28;20456;-70
2021/08/11 02:12:06;;;;;;;15.67;10.80;;;;;;;;;;5077103;28;20482;-71
2021/08/11 02:14:33;;;;;;;14.33;9.10;;;;;;;;;;5076215;28;20543;-71
2021/08/11 02:17:02;;;;;;;16.33;9.70;;;;;;;;;;5077072;28;20561;-70
2021/08/11 02:19:29;;;;;;;16.17;10.73;;;;;;;;;;5077000;28;20484;-71
2021/08/11 02:21:58;;;;;;;12.40;8.80;;;;;;;;;;5076821;28;20527;-71
2021/08/11 02:24:27;;;;;;;13.53;8.80;;;;;;;;;;5076061;28;20491;-70
2021/08/11 02:26:58;;;;;;;13.00;9.00;;;;;;;;;;5076713;28;20786;-71
2021/08/11 02:29:30;;;;;;;12.80;9.83;;;;;;;;;;5076779;28;20491;-71
2021/08/11 02:32:01;;;;;;;17.73;10.20;;;;;;;;;;5076098;28;20449;-71
2021/08/11 02:34:34;;;;;;;12.07;9.47;;;;;;;;;;5075836;28;20488;-71
2021/08/11 02:37:04;;;;;;;13.10;10.70;;;;;;;;;;5076077;28;20536;-71
2021/08/11 02:39:37;;;;;;;13.20;10.17;;;;;;;;;;5075270;28;20539;-71
2021/08/11 02:42:07;;;;;;;12.47;9.87;;;;;;;;;;5076073;28;20457;-71
2021/08/11 02:44:38;;;;;;;14.47;9.77;;;;;;;;;;5075870;28;20551;-71
2021/08/11 02:47:06;;;;;;;13.67;9.33;;;;;;;;;;5076463;28;20453;-71
2021/08/11 02:49:36;;;;;;;15.63;9.10;;;;;;;;;;5076417;28;20788;-71
2021/08/11 02:52:03;;;;;;;11.30;8.03;;;;;;;;;;5075828;28;20460;-71
2021/08/11 02:54:33;;;;;;;11.60;8.10;;;;;;;;;;5076064;28;20472;-71
2021/08/11 02:57:03;;;;;;;17.63;9.93;;;;;;;;;;5076484;28;20563;-71
2021/08/11 02:59:31;;;;;;;11.70;8.80;;;;;;;;;;5075882;28;20499;-71
2021/08/11 03:01:59;;;;;;;12.33;8.80;;;;;;;;;;5075432;28;20460;-71
2021/08/11 03:04:26;;;;;;;14.37;8.43;;;;;;;;;;5075961;28;20453;-71
2021/08/11 03:06:54;;;;;;;15.17;9.40;;;;;;;;;;5072755;28;20864;-71
2021/08/11 03:09:22;;;;;;;13.80;8.43;;;;;;;;;;5071546;28;20527;-71
2021/08/11 03:11:52;;;;;;;12.63;8.07;;;;;;;;;;5076225;28;20459;-70
2021/08/11 03:14:20;;;;;;;14.23;9.10;;;;;;;;;;5075924;28;20453;-71
2021/08/11 03:16:47;;;;;;;14.10;9.17;;;;;;;;;;5076087;28;20473;-71
2021/08/11 03:19:15;;;;;;;15.80;8.33;;;;;;;;;;5076053;28;20551;-71
2021/08/11 03:21:43;;;;;;;12.40;7.67;;;;;;;;;;5075718;28;20451;-71
2021/08/11 03:24:10;;;;;;;13.07;9.40;;;;;;;;;;5071208;28;20911;-71
2021/08/11 03:26:41;;;;;;;18.47;10.63;;;;;;;;;;5075154;28;20743;-71
2021/08/11 03:29:11;;;;;;;11.83;8.70;;;;;;;;;;5075735;28;20728;-71
2021/08/11 03:31:38;;;;;;;13.10;9.87;;;;;;;;;;5075125;28;20449;-71
2021/08/11 03:34:06;;;;;;;11.00;8.13;;;;;;;;;;5073491;28;20492;-71
2021/08/11 03:36:35;;;;;;;15.07;13.20;;;;;;;;;;5075749;28;20460;-71
2021/08/11 03:39:03;;;;;;;16.00;11.13;;;;;;;;;;5075372;28;20529;-71
2021/08/11 03:41:31;;;;;;;12.83;9.30;;;;;;;;;;5075136;28;20464;-71
2021/08/11 03:43:59;;;;;;;13.60;8.10;;;;;;;;;;5075524;28;20547;-71
2021/08/11 03:46:30;;;;;;;11.90;8.63;;;;;;;;;;5075380;28;20555;-71
2021/08/11 03:48:58;;;;;;;13.57;9.27;;;;;;;;;;5075550;28;20741;-71
2021/08/11 03:51:26;;;;;;;13.80;10.30;;;;;;;;;;5078274;28;20710;-72
2021/08/11 03:53:57;;;;;;;13.00;9.37;;;;;;;;;;5078566;28;20449;-71
2021/08/11 03:56:24;;;;;;;16.13;9.23;;;;;;;;;;5078739;28;20849;-71
2021/08/11 03:58:53;;;;;;;12.50;8.00;;;;;;;;;;5078517;28;20476;-72
2021/08/11 04:01:20;;;;;;;19.37;8.80;;;;;;;;;;5078871;28;20546;-72
2021/08/11 04:03:49;;;;;;;12.97;9.50;;;;;;;;;;5079027;28;20535;-72
2021/08/11 04:06:17;;;;;;;10.60;8.50;;;;;;;;;;5078262;28;20452;-71
2021/08/11 04:08:45;;;;;;;13.10;8.93;;;;;;;;;;5075004;28;20460;-72
2021/08/11 04:11:13;;;;;;;14.20;9.80;;;;;;;;;;5069015;28;20551;-72
2021/08/11 04:13:40;;;;;;;15.63;9.97;;;;;;;;;;5078056;28;20756;-72
2021/08/11 04:16:08;;;;;;;12.97;8.90;;;;;;;;;;5075435;28;20551;-72
2021/08/11 04:18:36;;;;;;;13.50;8.70;;;;;;;;;;5077841;28;20937;-72
2021/08/11 04:21:08;;;;;;;14.20;8.70;;;;;;;;;;5078519;28;20543;-71
2021/08/11 04:23:36;;;;;;;12.90;8.77;;;;;;;;;;5077709;28;20598;-72
2021/08/11 04:26:04;;;;;;;13.10;9.67;;;;;;;;;;5078280;28;20543;-71
2021/08/11 04:28:31;;;;;;;15.87;8.57;;;;;;;;;;5077864;28;20448;-72
2021/08/11 04:30:59;;;;;;;12.93;9.27;;;;;;;;;;5078545;28;20504;-71
2021/08/11 04:33:27;;;;;;;11.87;8.03;;;;;;;;;;5077288;28;20475;-71
2021/08/11 04:35:54;;;;;;;15.83;9.03;;;;;;;;;;5066142;28;20497;-72
2021/08/11 04:38:24;;;;;;;15.57;10.40;;;;;;;;;;5057558;28;20486;-72
2021/08/11 04:40:51;;;;;;;20.40;10.40;;;;;;;;;;5058219;28;20460;-72
2021/08/11 04:43:19;;;;;;;17.20;9.90;;;;;;;;;;5058098;28;20542;-71
2021/08/11 04:45:47;;;;;;;17.83;9.67;;;;;;;;;;5058072;28;20485;-72
2021/08/11 04:48:15;;;;;;;14.30;9.50;;;;;;;;;;5057578;28;20575;-71
2021/08/11 04:50:43;;;;;;;15.00;9.50;;;;;;;;;;5058513;28;20501;-72
2021/08/11 04:53:10;;;;;;;14.83;10.17;;;;;;;;;;5058154;28;20536;-72
2021/08/11 04:55:39;;;;;;;16.17;10.50;;;;;;;;;;5058197;28;20457;-72
2021/08/11 04:58:07;;;;;;;16.33;9.67;;;;;;;;;;5057588;28;20548;-72
2021/08/11 05:00:35;;;;;;;13.33;8.80;;;;;;;;;;5062538;28;20821;-72
2021/08/11 05:03:02;;;;;;;14.93;9.73;;;;;;;;;;5076185;28;20475;-71
2021/08/11 05:05:31;;;;;;;15.47;10.50;;;;;;;;;;5071292;28;20499;-72
2021/08/11 05:07:59;;;;;;;21.93;9.97;;;;;;;;;;5077433;28;20449;-72
2021/08/11 05:10:27;;;;;;;13.60;9.77;;;;;;;;;;5077528;28;20518;-71
2021/08/11 05:12:56;;;;;;;14.97;10.67;;;;;;;;;;5076643;28;20445;-71
2021/08/11 05:15:24;;;;;;;15.40;10.40;;;;;;;;;;5077661;28;20482;-71
2021/08/11 05:17:51;;;;;;;13.50;9.77;;;;;;;;;;5077139;28;20541;-72
2021/08/11 05:20:22;;;;;;;15.30;10.67;;;;;;;;;;5077227;28;20579;-71
2021/08/11 05:22:50;;;;;;;15.07;10.53;;;;;;;;;;5076990;28;20872;-71
2021/08/11 05:25:18;;;;;;;15.10;11.13;;;;;;;;;;5077292;28;20887;-72
2021/08/11 05:27:46;;;;;;;13.13;10.57;;;;;;;;;;5077188;28;20460;-70
2021/08/11 05:30:15;;;;;;;13.53;9.87;;;;;;;;;;5077270;28;20451;-70
2021/08/11 05:32:44;;;;;;;14.30;9.40;;;;;;;;;;5076586;28;20541;-70
2021/08/11 05:35:12;;;;;;;12.20;8.67;;;;;;;;;;5076578;28;20448;-70
2021/08/11 05:37:40;;;;;;;10.60;8.20;;;;;;;;;;5076723;28;20900;-71
2021/08/11 05:40:18;;;;;;;10.83;9.00;;;;;;;;;;5073125;28;21111;-72
2021/08/11 05:42:46;;;;;;;11.90;9.57;;;;;;;;;;5074456;28;21046;-71
2021/08/11 05:45:17;;;;;;;11.67;8.17;;;;;;;;;;5075158;28;20455;-69
2021/08/11 05:47:48;;;;;;;8.90;7.40;;;;;;;;;;5076007;28;21089;-71
2021/08/11 05:50:19;;;;;;;10.47;8.50;;;;;;;;;;5076439;28;20750;-71
2021/08/11 05:52:48;;;;;;;9.43;8.53;;;;;;;;;;5076903;28;20483;-69
2021/08/11 05:55:16;;;;;;;11.37;8.47;;;;;;;;;;5076672;28;20447;-70
2021/08/11 05:57:44;;;;;;;8.30;7.30;;;;;;;;;;5076616;28;20530;-70
2021/08/11 06:00:12;;;;;;;10.13;7.73;;;;;;;;;;5076149;28;20977;-70
2021/08/11 06:02:42;;;;;;;11.10;7.70;;;;;;;;;;5076440;28;20837;-70
2021/08/11 06:05:13;;;;;;;16.83;8.47;;;;;;;;;;5075363;28;20448;-70
2021/08/11 06:07:41;;;;;;;8.83;7.80;;;;;;;;;;5075342;28;20899;-70
2021/08/11 06:10:09;;;;;;;9.50;7.30;;;;;;;;;;5076058;28;20503;-70
2021/08/11 06:12:38;;;;;;;8.73;7.33;;;;;;;;;;5075378;28;20816;-72
2021/08/11 06:15:05;;;;;;;8.47;6.77;;;;;;;;;;5076330;28;20459;-71
2021/08/11 06:17:33;;;;;;;10.10;7.20;;;;;;;;;;5075518;28;20464;-71
2021/08/11 06:20:02;;;;;;;9.23;7.10;;;;;;;;;;5075374;28;20491;-71
2021/08/11 06:22:40;;;;;;;11.07;7.77;;;;;;;;;;5074635;28;20514;-71
2021/08/11 06:25:08;;;;;;;8.90;6.97;;;;;;;;;;5055437;28;20457;-70
2021/08/11 06:27:36;;;;;;;11.87;9.10;;;;;;;;;;5073844;28;20437;-70
2021/08/11 06:30:04;;;;;;;12.60;7.70;;;;;;;;;;5075158;28;20453;-70
2021/08/11 06:32:35;;;;;;;12.70;11.27;;;;;;;;;;5075182;28;20476;-70
2021/08/11 06:35:08;;;;;;;9.53;7.53;;;;;;;;;;5075740;28;20466;-71
2021/08/11 06:37:44;;;;;;;9.73;7.67;;;;;;;;;;5075099;28;20456;-71
2021/08/11 06:40:15;;;;;;;11.40;8.63;;;;;;;;;;5074504;28;20488;-71
2021/08/11 06:42:43;;;;;;;11.53;8.20;;;;;;;;;;5075222;28;20467;-70
2021/08/11 06:45:12;;;;;;;14.47;8.97;;;;;;;;;;5075699;28;20877;-70
2021/08/11 06:47:43;;;;;;;13.20;7.80;;;;;;;;;;5074828;28;20452;-71
2021/08/11 06:50:16;;;;;;;9.97;8.00;;;;;;;;;;5075820;28;20518;-70
2021/08/11 06:52:48;;;;;;;10.30;7.37;;;;;;;;;;5076137;28;20539;-71
2021/08/11 06:55:19;;;;;;;10.37;7.27;;;;;;;;;;5070544;28;20468;-71
2021/08/11 06:57:50;;;;;;;8.03;6.77;;;;;;;;;;5076254;28;20525;-71
2021/08/11 07:00:23;;;;;;;9.70;6.53;;;;;;;;;;5074665;28;20515;-72
2021/08/11 07:02:56;;;;;;;9.47;8.10;;;;;;;;;;5075443;28;20456;-71
2021/08/11 07:05:26;;;;;;;11.70;7.83;;;;;;;;;;5075283;28;21035;-71
2021/08/11 07:07:54;;;;;;;9.03;6.90;;;;;;;;;;5074910;28;20441;-71
2021/08/11 07:10:21;;;;;;;10.97;8.03;;;;;;;;;;5074955;28;20448;-72
2021/08/11 07:12:49;;;;;;;13.50;10.77;;;;;;;;;;5074312;28;20457;-71
2021/08/11 07:15:18;;;;;;;14.37;9.50;;;;;;;;;;5073441;28;20451;-72
2021/08/11 07:17:54;;;;;;;12.17;7.27;;;;;;;;;;5072204;28;20955;-72
2021/08/11 07:20:24;;;;;;;8.93;6.63;;;;;;;;;;5071751;28;20487;-71
2021/08/11 07:22:58;;;;;;;9.30;6.60;;;;;;;;;;5073912;28;20464;-71
2021/08/11 07:25:26;;;;;;;10.40;7.13;;;;;;;;;;5076396;28;20437;-71
2021/08/11 07:27:54;;;;;;;9.97;7.57;;;;;;;;;;5078574;28;20452;-72
2021/08/11 07:30:24;;;;;;;9.20;8.30;;;;;;;;;;5077317;28;20461;-72
2021/08/11 07:32:59;;;;;;;7.10;5.33;;;;;;;;;;5077763;28;20456;-72
2021/08/11 07:35:26;;;;;;;8.13;6.17;;;;;;;;;;5077674;28;20436;-71
2021/08/11 07:37:56;;;;;;;7.00;5.67;;;;;;;;;;5077531;28;20528;-71
2021/08/11 07:40:24;;;;;;;8.13;5.67;;;;;;;;;;5078248;28;20617;-71
2021/08/11 07:42:52;;;;;;;8.20;6.53;;;;;;;;;;5077841;28;20464;-71
2021/08/11 07:45:20;;;;;;;7.73;6.27;;;;;;;;;;5077858;28;20459;-72
2021/08/11 07:47:52;;;;;;;7.20;5.57;;;;;;;;;;5074862;28;20457;-71
2021/08/11 07:50:20;;;;;;;7.10;6.20;;;;;;;;;;5077650;28;20445;-71
2021/08/11 07:52:48;;;;;;;7.80;6.30;;;;;;;;;;5077914;28;20569;-71
2021/08/11 07:55:18;;;;;;;9.47;6.47;;;;;;;;;;5077263;28;20786;-71
2021/08/11 07:57:46;;;;;;;7.27;5.83;;;;;;;;;;5074872;28;20452;-71
2021/08/11 08:00:15;;;;;;;7.70;4.80;;;;;;;;;;5080180;28;20957;-70
2021/08/11 08:02:43;;;;;;;8.93;6.80;;;;;;;;;;5077158;28;20460;-71
2021/08/11 08:05:12;;;;;;;9.97;6.27;;;;;;;;;;5077726;28;20555;-71
2021/08/11 08:07:41;;;;;;;6.50;5.30;;;;;;;;;;5077282;28;20522;-71
2021/08/11 08:10:15;;;;;;;8.90;5.63;;;;;;;;;;5076995;28;20444;-71
2021/08/11 08:12:48;;;;;;;9.27;8.03;;;;;;;;;;5077503;28;20472;-72
2021/08/11 08:15:16;;;;;;;9.07;4.97;;;;;;;;;;5076454;28;20447;-70
2021/08/11 08:17:45;;;;;;;7.70;6.57;;;;;;;;;;5076105;28;20568;-70
2021/08/11 08:20:15;;;;;;;9.07;5.93;;;;;;;;;;5076730;28;20476;-71
2021/08/11 08:22:44;;;;;;;7.67;5.80;;;;;;;;;;5076489;28;20836;-71
2021/08/11 08:25:12;;;;;;;7.40;5.40;;;;;;;;;;5075743;28;20502;-71
2021/08/11 08:27:40;;;;;;;6.73;5.30;;;;;;;;;;5066031;28;20836;-70
2021/08/11 08:30:10;;;;;;;6.67;5.33;;;;;;;;;;5076996;28;20471;-70
2021/08/11 08:32:39;;;;;;;7.20;6.30;;;;;;;;;;5076279;28;20464;-70
2021/08/11 08:35:08;;;;;;;8.10;4.60;;;;;;;;;;5076381;28;20453;-70
2021/08/11 08:37:38;;;;;;;9.53;6.97;;;;;;;;;;5073007;28;20468;-70
2021/08/11 08:40:10;;;;;;;6.83;4.70;;;;;;;;;;5075220;28;20554;-71
2021/08/11 08:45:50;;;;;;;11.80;7.13;;;;;;;;;;5070738;28;20590;-71
2021/08/11 08:48:21;;;;;;;6.87;4.70;;;;;;;;;;5074171;28;20919;-71
2021/08/11 08:50:51;;;;;;;9.43;6.30;;;;;;;;;;5076177;28;20550;-71
2021/08/11 08:53:25;;;;;;;9.60;6.40;;;;;;;;;;5073288;28;20773;-71
2021/08/11 08:55:54;;;;;;;7.90;6.47;;;;;;;;;;5066648;28;20878;-71
2021/08/11 08:58:22;;;;;;;11.10;7.57;;;;;;;;;;5077407;28;20934;-73
2021/08/11 09:00:49;;;;;;;7.87;5.17;;;;;;;;;;5078730;28;21011;-71
2021/08/11 09:03:31;;;;;;;10.83;7.47;;;;;;;;;;5076161;28;20521;-71
2021/08/11 09:06:11;;;;;;;17.10;9.60;;;;;;;;;;5068924;28;20464;-72
2021/08/11 09:08:55;;;;;;;10.90;7.60;;;;;;;;;;5076166;28;20472;-70
2021/08/11 09:11:25;;;;;;;6.60;4.90;;;;;;;;;;5076676;28;20509;-71
2021/08/11 09:14:17;;;;;;;7.57;6.77;;;;;;;;;;5074740;28;20480;-70
2021/08/11 09:16:51;;;;;;;7.50;6.20;;;;;;;;;;5061235;28;20455;-70
2021/08/11 09:19:20;;;;;;;9.40;6.27;;;;;;;;;;5075975;28;20467;-70
2021/08/11 09:22:02;;;;;;;9.90;6.33;;;;;;;;;;5075000;28;20792;-70
2021/08/11 09:24:32;;;;;;;9.60;5.53;;;;;;;;;;5079450;28;20872;-70
2021/08/11 09:27:16;;;;;;;7.00;5.67;;;;;;;;;;5075456;28;20451;-70
2021/08/11 09:30:09;;;;;;;6.90;6.00;;;;;;;;;;5075937;28;20504;-71
2021/08/11 09:32:55;;;;;;;9.27;5.90;;;;;;;;;;5079901;28;20461;-70
2021/08/11 09:35:27;;;;;;;6.70;5.70;;;;;;;;;;5063288;28;20487;-71
2021/08/11 09:37:56;;;;;;;11.13;5.53;;;;;;;;;;5084723;28;21121;-71
2021/08/11 09:40:29;;;;;;;9.10;5.33;;;;;;;;;;5075441;28;20797;-71
2021/08/11 09:43:01;;;;;;;7.80;6.77;;;;;;;;;;5073041;28;20456;-70
2021/08/11 09:45:44;;;;;;;7.60;5.03;;;;;;;;;;5089236;28;20456;-71
2021/08/11 09:48:12;;;;;;;5.70;5.00;;;;;;;;;;5075602;28;20461;-71
2021/08/11 09:50:58;;;;;;;9.83;7.17;;;;;;;;;;5075855;28;20779;-71
2021/08/11 09:53:52;;;;;;;7.43;5.23;;;;;;;;;;5075386;28;20456;-73
2021/08/11 09:56:39;;;;;;;8.67;5.53;;;;;;;;;;5049133;28;20522;-71
2021/08/11 09:59:20;;;;;;;7.33;6.10;;;;;;;;;;5073861;28;20723;-73
2021/08/11 10:01:50;;;;;;;8.57;5.23;;;;;;;;;;5074271;28;20495;-72
2021/08/11 10:04:20;;;;;;;7.33;6.13;;;;;;;;;;5073304;28;20444;-70
2021/08/11 10:06:54;;;;;;;8.27;6.57;;;;;;;;;;5073168;28;20482;-71
2021/08/11 10:09:24;;;;;;;12.23;6.63;;;;;;;;;;5074554;28;20432;-71
2021/08/11 10:11:56;;;;;;;5.90;4.80;;;;;;;;;;5074525;28;20601;-70
2021/08/11 10:14:28;;;;;;;9.13;4.87;;;;;;;;;;5067442;28;20498;-70
2021/08/11 10:16:57;;;;;;;9.87;5.20;;;;;;;;;;5074650;28;20547;-70
2021/08/11 10:19:30;;;;;;;11.00;6.73;;;;;;;;;;5074713;28;20488;-71
2021/08/11 10:21:58;;;;;;;7.53;5.00;;;;;;;;;;5074945;28;20476;-70
2021/08/11 10:24:27;;;;;;;7.00;5.57;;;;;;;;;;5073900;28;20535;-71
2021/08/11 10:27:02;;;;;;;6.50;3.93;;;;;;;;;;5074922;28;20453;-71
2021/08/11 10:29:32;;;;;;;4.90;3.80;;;;;;;;;;5074607;28;20459;-71
2021/08/11 10:32:01;;;;;;;6.57;4.67;;;;;;;;;;5067889;28;20849;-71
2021/08/11 10:34:35;;;;;;;8.23;6.30;;;;;;;;;;5074683;28;20456;-70
2021/08/11 10:37:04;;;;;;;10.87;8.87;;;;;;;;;;5073927;28;20440;-70
2021/08/11 10:39:33;;;;;;;12.07;4.53;;;;;;;;;;5075509;28;20530;-71
2021/08/11 10:42:27;;;;;;;7.70;5.90;;;;;;;;;;5071508;28;20502;-72
2021/08/11 10:44:59;;;;;;;8.83;5.80;;;;;;;;;;5074218;28;20456;-73
2021/08/11 10:47:36;;;;;;;7.50;6.50;;;;;;;;;;5074119;28;20559;-70
2021/08/11 10:50:05;;;;;;;7.60;5.23;;;;;;;;;;5071625;28;20452;-71
2021/08/11 10:52:36;;;;;;;5.50;4.50;;;;;;;;;;5074850;28;20539;-71
2021/08/11 10:55:05;;;;;;;7.90;7.03;;;;;;;;;;5072983;28;20820;-72
2021/08/11 10:57:54;;;;;;;6.47;5.33;;;;;;;;;;5072664;28;20493;-71
2021/08/11 11:00:49;;;;;;;7.87;5.43;;;;;;;;;;5068521;28;20548;-71
2021/08/11 11:03:36;;;;;;;6.47;5.77;;;;;;;;;;5077507;28;20864;-70
2021/08/11 11:06:04;;;;;;;5.80;4.37;;;;;;;;;;5077415;28;20479;-70
2021/08/11 11:08:37;;;;;;;7.10;6.17;;;;;;;;;;5077575;28;20472;-70
2021/08/11 11:11:37;;;;;;;6.80;5.37;;;;;;;;;;5077039;28;20474;-73
2021/08/11 11:14:30;;;;;;;7.43;4.77;;;;;;;;;;5077437;28;20444;-71
2021/08/11 11:17:10;;;;;;;6.70;5.00;;;;;;;;;;5077703;28;20440;-71
2021/08/11 11:19:57;;;;;;;7.17;6.07;;;;;;;;;;5077266;28;20471;-70
2021/08/11 11:22:37;;;;;;;7.97;5.13;;;;;;;;;;5080161;28;20480;-71
2021/08/11 11:25:08;;;;;;;4.20;3.40;;;;;;;;;;5078074;28;20480;-70
2021/08/11 11:27:54;;;;;;;6.73;6.03;;;;;;;;;;5078302;28;20490;-70
2021/08/11 11:30:45;;;;;;;13.63;5.90;;;;;;;;;;5077411;28;20475;-71
2021/08/11 11:33:47;;;;;;;7.00;3.87;;;;;;;;;;5077566;28;20752;-71
2021/08/11 11:36:28;;;;;;;5.83;4.03;;;;;;;;;;5078338;28;20459;-72
2021/08/11 11:39:17;;;;;;;5.93;3.93;;;;;;;;;;5057831;28;20453;-71
2021/08/11 11:42:00;;;;;;;4.77;3.97;;;;;;;;;;5057772;28;21136;-71
2021/08/11 11:44:46;;;;;;;4.77;2.77;;;;;;;;;;5058353;28;20461;-71
2021/08/11 11:47:16;;;;;;;8.57;6.20;;;;;;;;;;5057658;28;20461;-71
2021/08/11 11:49:47;;;;;;;10.13;9.10;;;;;;;;;;5057248;28;20544;-72
2021/08/11 11:52:18;;;;;;;11.63;10.73;;;;;;;;;;5057562;28;20437;-72
2021/08/11 11:54:46;;;;;;;5.83;5.20;;;;;;;;;;5056941;28;20537;-70
2021/08/11 11:57:16;;;;;;;6.60;4.33;;;;;;;;;;5058655;28;20895;-70
2021/08/11 11:59:46;;;;;;;9.70;7.60;;;;;;;;;;5057141;28;20468;-71
2021/08/11 12:02:21;;;;;;;5.93;4.50;;;;;;;;;;5058023;28;20481;-73
2021/08/11 12:05:02;;;;;;;7.20;6.60;;;;;;;;;;5058708;28;20855;-72
2021/08/11 12:07:32;;;;;;;10.57;9.63;;;;;;;;;;5058928;28;20507;-71
2021/08/11 12:10:00;;;;;;;10.13;7.20;;;;;;;;;;5057777;28;20457;-71
2021/08/11 12:12:27;;;;;;;7.93;7.40;;;;;;;;;;5059161;28;20449;-71
2021/08/11 12:15:13;;;;;;;12.83;11.83;;;;;;;;;;5057972;28;20463;-72
2021/08/11 12:17:42;;;;;;;14.93;10.67;;;;;;;;;;5056719;28;20449;-71
2021/08/11 12:20:24;;;;;;;4.40;3.40;;;;;;;;;;5056429;28;20536;-71
2021/08/11 12:22:59;;;;;;;5.10;3.57;;;;;;;;;;5057006;28;20445;-70
2021/08/11 12:25:29;;;;;;;6.93;4.80;;;;;;;;;;5058127;28;20445;-71
2021/08/11 12:28:10;;;;;;;4.07;2.90;;;;;;;;;;5056679;28;20444;-71
2021/08/11 12:30:43;;;;;;;3.80;2.37;;;;;;;;;;5055795;28;20514;-71
2021/08/11 12:33:13;;;;;;;4.53;3.03;;;;;;;;;;5055711;28;20454;-72
2021/08/11 12:35:47;;;;;;;4.23;2.67;;;;;;;;;;5057802;28;20488;-71
2021/08/11 12:38:29;;;;;;;5.00;3.87;;;;;;;;;;5058082;28;20489;-71
2021/08/11 12:40:57;;;;;;;4.90;3.97;;;;;;;;;;5055896;28;20478;-71
2021/08/11 12:43:36;;;;;;;5.97;2.97;;;;;;;;;;5056677;28;20460;-71
2021/08/11 12:46:23;;;;;;;4.00;2.87;;;;;;;;;;5058127;28;20537;-72
2021/08/11 12:49:19;;;;;;;6.63;3.80;;;;;;;;;;5057249;28;20449;-72
2021/08/11 12:51:47;;;;;;;4.03;2.53;;;;;;;;;;5056301;28;20470;-71
2021/08/11 12:54:22;;;;;;;4.40;2.20;;;;;;;;;;5056520;28;20568;-71
2021/08/11 12:57:00;;;;;;;2.97;2.27;;;;;;;;;;5057945;28;20547;-71
2021/08/11 12:59:52;;;;;;;3.20;2.20;;;;;;;;;;5056039;28;20514;-71
2021/08/11 13:02:24;;;;;;;4.67;2.43;;;;;;;;;;5057051;28;20599;-71
2021/08/11 13:04:53;;;;;;;4.03;3.00;;;;;;;;;;5056931;28;20773;-70
2021/08/11 13:07:21;;;;;;;4.67;2.80;;;;;;;;;;5057653;28;20492;-70
2021/08/11 13:09:50;;;;;;;4.27;3.40;;;;;;;;;;5057163;28;20439;-70
2021/08/11 13:12:30;;;;;;;5.53;3.17;;;;;;;;;;5039190;28;20450;-70
2021/08/11 13:14:58;;;;;;;4.00;2.70;;;;;;;;;;5057071;28;20446;-70
2021/08/11 13:17:29;;;;;;;4.30;2.57;;;;;;;;;;5055741;28;20826;-71
2021/08/11 13:20:28;;;;;;;6.33;2.90;;;;;;;;;;5055616;28;20458;-71
2021/08/11 13:23:07;;;;;;;3.90;2.63;;;;;;;;;;4993569;28;20570;-72
2021/08/11 13:25:37;;;;;;;3.10;1.83;;;;;;;;;;5046856;28;20485;-71
2021/08/11 13:28:05;;;;;;;3.30;2.07;;;;;;;;;;5053489;28;20457;-71
2021/08/11 13:30:33;;;;;;;5.13;3.00;;;;;;;;;;5053305;28;20468;-71
2021/08/11 13:33:01;;;;;;;5.20;2.87;;;;;;;;;;5056376;28;20507;-72
2021/08/11 13:35:32;;;;;;;7.17;4.00;;;;;;;;;;5055036;28;20461;-72
2021/08/11 13:38:05;;;;;;;3.60;2.33;;;;;;;;;;5055711;28;20556;-72
2021/08/11 13:40:50;;;;;;;4.90;2.67;;;;;;;;;;5055405;28;20457;-72
2021/08/11 13:43:18;;;;;;;4.17;2.60;;;;;;;;;;5054654;28;20480;-72
2021/08/11 13:45:46;;;;;;;4.23;2.97;;;;;;;;;;5055380;28;20918;-70
2021/08/11 13:48:16;;;;;;;3.90;2.77;;;;;;;;;;5055892;28;20519;-71
2021/08/11 13:50:45;;;;;;;2.67;2.20;;;;;;;;;;5054681;28;20457;-70
2021/08/11 13:53:15;;;;;;;3.50;2.00;;;;;;;;;;5055900;28;20510;-70
2021/08/11 13:55:57;;;;;;;8.07;2.20;;;;;;;;;;5056526;28;20489;-71
2021/08/11 13:58:30;;;;;;;3.60;2.13;;;;;;;;;;5053728;28;20520;-71
2021/08/11 14:01:01;;;;;;;4.83;2.00;;;;;;;;;;5056215;28;20461;-71
2021/08/11 14:03:29;;;;;;;4.00;2.10;;;;;;;;;;5059643;28;20469;-70
2021/08/11 14:05:57;;;;;;;3.63;2.17;;;;;;;;;;5054704;28;20564;-72
2021/08/11 14:08:26;;;;;;;2.90;2.17;;;;;;;;;;5054472;28;21129;-71
2021/08/11 14:11:07;;;;;;;5.20;2.30;;;;;;;;;;5054319;28;20441;-71
2021/08/11 14:13:34;;;;;;;2.53;1.90;;;;;;;;;;5053444;28;20864;-71
2021/08/11 14:16:02;;;;;;;3.97;2.10;;;;;;;;;;5054371;28;20481;-71
2021/08/11 14:18:30;;;;;;;4.20;1.93;;;;;;;;;;5053270;28;20553;-71
2021/08/11 14:20:59;;;;;;;2.60;1.70;;;;;;;;;;5053350;28;20481;-71
2021/08/11 14:23:28;;;;;;;3.40;2.10;;;;;;;;;;5053916;28;20497;-71
2021/08/11 14:25:57;;;;;;;2.50;2.13;;;;;;;;;;5053911;28;20544;-71
2021/08/11 14:28:32;;;;;;;3.03;2.10;;;;;;;;;;5054208;28;20545;-71
2021/08/11 14:31:03;;;;;;;6.10;2.30;;;;;;;;;;5054195;28;20812;-71
2021/08/11 14:33:30;;;;;;;3.80;2.63;;;;;;;;;;5053725;28;20457;-70
2021/08/11 14:35:59;;;;;;;3.97;2.47;;;;;;;;;;5052943;28;20467;-72
2021/08/11 14:38:36;;;;;;;3.50;1.93;;;;;;;;;;5054167;28;20551;-72
2021/08/11 14:41:04;;;;;;;2.90;2.13;;;;;;;;;;5053170;28;20748;-71
2021/08/11 14:43:37;;;;;;;3.50;2.00;;;;;;;;;;5052764;28;20492;-72
2021/08/11 14:46:07;;;;;;;2.80;1.83;;;;;;;;;;5054119;28;20468;-71
2021/08/11 14:48:41;;;;;;;4.73;2.90;;;;;;;;;;5054119;28;20453;-72
2021/08/11 14:51:09;;;;;;;2.80;1.70;;;;;;;;;;5054105;28;20556;-71
2021/08/11 14:53:40;;;;;;;5.90;2.40;;;;;;;;;;5054133;28;20450;-70
2021/08/11 14:56:09;;;;;;;5.03;1.83;;;;;;;;;;5054781;28;20889;-70
2021/08/11 14:58:42;;;;;;;3.20;2.07;;;;;;;;;;5053025;28;20991;-71
2021/08/11 15:01:10;;;;;;;4.50;2.30;;;;;;;;;;5052884;28;20460;-71
2021/08/11 15:03:43;;;;;;;2.47;2.00;;;;;;;;;;5053553;28;20485;-71